createdAt,value
2022-11-16T00:01:30.118Z,4.60
2022-11-16T00:03:59.847Z,4.55
2022-11-16T00:06:27.276Z,4.43
2022-11-16T00:09:19.280Z,4.42
2022-11-16T00:11:45.976Z,3.50
2022-11-16T00:14:12.563Z,4.18
2022-11-16T00:16:39.218Z,4.04
2022-11-16T00:19:06.977Z,4.10
2022-11-16T00:21:34.134Z,4.18
2022-11-16T00:24:00.889Z,3.87
2022-11-16T00:26:27.503Z,4.32
2022-11-16T00:28:55.157Z,4.30
2022-11-16T00:31:21.876Z,4.11
2022-11-16T00:33:49.233Z,4.24
2022-11-16T00:36:16.707Z,4.25
2022-11-16T00:38:43.464Z,4.18
2022-11-16T00:41:10.536Z,4.32
2022-11-16T00:43:37.506Z,4.30
2022-11-16T00:46:05.024Z,4.31
2022-11-16T00:48:32.270Z,4.14
2022-11-16T00:50:59.017Z,3.43
2022-11-16T00:53:25.750Z,4.13
2022-11-16T00:55:52.331Z,4.16
2022-11-16T00:58:18.930Z,4.11
2022-11-16T01:00:45.562Z,4.09
2022-11-16T01:03:12.178Z,4.10
2022-11-16T01:05:39.544Z,3.62
2022-11-16T01:08:06.960Z,3.42
2022-11-16T01:10:33.884Z,3.46
2022-11-16T01:13:00.457Z,3.68
2022-11-16T01:15:28.314Z,3.12
2022-11-16T01:17:56.134Z,3.77
2022-11-16T01:20:25.745Z,3.80
2022-11-16T01:22:52.749Z,3.72
2022-11-16T01:25:20.239Z,3.86
2022-11-16T01:27:47.373Z,3.88
2022-11-16T01:30:16.602Z,3.86
2022-11-16T01:32:43.507Z,3.96
2022-11-16T01:35:15.643Z,3.58
2022-11-16T01:37:42.257Z,4.01
2022-11-16T01:40:10.133Z,3.22
2022-11-16T01:42:36.887Z,3.87
2022-11-16T01:45:06.627Z,3.84
2022-11-16T01:47:33.728Z,3.78
2022-11-16T01:50:11.672Z,3.86
2022-11-16T01:52:44.269Z,3.71
2022-11-16T01:55:12.013Z,3.79
2022-11-16T01:57:43.134Z,3.85
2022-11-16T02:00:12.245Z,3.15
2022-11-16T02:02:38.842Z,3.80
2022-11-16T02:05:06.895Z,3.88
2022-11-16T02:08:16.539Z,3.88
2022-11-16T02:11:21.223Z,3.92
2022-11-16T02:14:32.348Z,3.87
2022-11-16T02:17:21.424Z,3.95
2022-11-16T02:20:19.684Z,3.58
2022-11-16T02:22:53.074Z,3.86
2022-11-16T02:25:30.663Z,3.70
2022-11-16T02:28:15.051Z,3.64
2022-11-16T02:30:47.606Z,3.05
2022-11-16T02:33:20.180Z,3.51
2022-11-16T02:35:56.836Z,3.27
2022-11-16T02:38:35.944Z,3.64
2022-11-16T02:41:08.267Z,3.45
2022-11-16T02:43:42.694Z,3.48
2022-11-16T02:46:16.709Z,3.73
2022-11-16T02:48:50.121Z,3.24
2022-11-16T02:51:18.767Z,3.68
2022-11-16T02:54:08.638Z,3.83
2022-11-16T02:57:02.998Z,3.57
2022-11-16T02:59:36.698Z,4.19
2022-11-16T03:02:20.861Z,3.32
2022-11-16T03:04:52.161Z,2.89
2022-11-16T03:07:24.000Z,2.75
2022-11-16T03:09:52.073Z,2.61
2022-11-16T03:12:25.441Z,2.03
2022-11-16T03:14:59.371Z,2.46
2022-11-16T03:17:30.505Z,2.87
2022-11-16T03:20:12.372Z,3.16
2022-11-16T03:22:46.349Z,3.44
2022-11-16T03:25:16.454Z,3.63
2022-11-16T03:27:42.972Z,3.70
2022-11-16T03:30:24.518Z,3.78
2022-11-16T03:33:09.040Z,3.93
2022-11-16T03:35:46.176Z,3.87
2022-11-16T03:38:15.477Z,3.95
2022-11-16T03:40:45.869Z,3.82
2022-11-16T03:43:13.249Z,3.44
2022-11-16T03:45:40.704Z,3.41
2022-11-16T03:48:08.063Z,3.31
2022-11-16T03:50:34.637Z,3.69
2022-11-16T03:53:01.206Z,3.86
2022-11-16T03:55:27.789Z,3.89
2022-11-16T03:57:54.427Z,3.81
2022-11-16T04:00:21.049Z,3.64
2022-11-16T04:02:47.624Z,4.03
2022-11-16T04:05:32.655Z,3.98
2022-11-16T04:08:18.196Z,4.10
2022-11-16T04:11:03.347Z,4.08
2022-11-16T04:13:50.734Z,4.20
2022-11-16T04:16:36.219Z,3.91
2022-11-16T04:19:21.039Z,4.49
2022-11-16T04:22:12.414Z,4.62
2022-11-16T04:24:41.177Z,4.52
2022-11-16T04:27:29.640Z,4.69
2022-11-16T04:29:57.983Z,4.69
2022-11-16T04:32:43.049Z,4.67
2022-11-16T04:35:28.376Z,4.68
2022-11-16T04:37:57.076Z,4.60
2022-11-16T04:40:27.964Z,4.84
2022-11-16T04:42:56.626Z,4.87
2022-11-16T04:45:42.712Z,4.82
2022-11-16T04:48:09.958Z,4.76
2022-11-16T04:50:37.082Z,4.70
2022-11-16T04:53:05.281Z,4.41
2022-11-16T04:55:32.734Z,4.92
2022-11-16T04:57:59.772Z,4.33
2022-11-16T05:00:26.673Z,3.97
2022-11-16T05:02:58.211Z,4.29
2022-11-16T05:05:27.511Z,3.88
2022-11-16T05:07:54.118Z,3.80
2022-11-16T05:10:20.650Z,4.20
2022-11-16T05:12:47.287Z,4.15
2022-11-16T05:15:13.940Z,4.32
2022-11-16T05:17:40.545Z,4.41
2022-11-16T05:20:26.476Z,3.27
2022-11-16T05:22:55.053Z,4.53
2022-11-16T05:25:21.891Z,4.28
2022-11-16T05:27:48.787Z,4.68
2022-11-16T05:30:15.656Z,4.72
2022-11-16T05:32:42.196Z,4.59
2022-11-16T05:35:08.882Z,4.40
2022-11-16T05:37:35.596Z,4.25
2022-11-16T05:40:02.155Z,4.20
2022-11-16T05:42:28.724Z,4.24
2022-11-16T05:44:55.357Z,3.95
2022-11-16T05:47:22.026Z,4.33
2022-11-16T05:49:48.624Z,4.35
2022-11-16T05:52:15.237Z,4.34
2022-11-16T05:54:41.774Z,3.68
2022-11-16T05:57:08.407Z,3.72
2022-11-16T05:59:35.338Z,4.03
2022-11-16T06:02:03.988Z,4.18
2022-11-16T06:04:30.605Z,4.14
2022-11-16T06:06:57.212Z,4.06
2022-11-16T06:09:23.757Z,4.21
2022-11-16T06:11:50.376Z,4.24
2022-11-16T06:14:17.016Z,4.12
2022-11-16T06:16:43.669Z,3.75
2022-11-16T06:19:10.252Z,3.68
2022-11-16T06:21:36.896Z,4.30
2022-11-16T06:24:08.894Z,4.36
2022-11-16T06:26:36.284Z,3.68
2022-11-16T06:29:03.194Z,3.92
2022-11-16T06:31:30.258Z,3.90
2022-11-16T06:33:56.774Z,4.32
2022-11-16T06:36:23.383Z,4.57
2022-11-16T06:38:50.937Z,4.54
2022-11-16T06:41:17.625Z,4.68
2022-11-16T06:43:44.435Z,4.59
2022-11-16T06:46:11.088Z,5.08
2022-11-16T06:48:37.893Z,4.48
2022-11-16T06:51:04.624Z,4.88
2022-11-16T06:56:16.420Z,5.94
2022-11-16T06:58:43.208Z,5.91
2022-11-16T07:01:11.570Z,6.13
2022-11-16T07:03:38.624Z,6.34
2022-11-16T07:06:10.812Z,6.68
2022-11-16T07:08:38.016Z,6.76
2022-11-16T07:11:06.440Z,6.96
2022-11-16T07:13:34.405Z,7.05
2022-11-16T07:16:03.088Z,7.75
2022-11-16T07:18:29.773Z,7.62
2022-11-16T07:20:56.321Z,8.07
2022-11-16T07:23:22.945Z,8.32
2022-11-16T07:25:49.494Z,8.24
2022-11-16T07:28:16.064Z,8.57
2022-11-16T07:30:44.721Z,8.95
2022-11-16T07:33:11.367Z,9.07
2022-11-16T07:35:37.930Z,8.95
2022-11-16T07:38:04.546Z,9.44
2022-11-16T07:40:31.151Z,8.83
2022-11-16T07:42:58.760Z,9.32
2022-11-16T07:45:25.347Z,9.84
2022-11-16T07:47:53.533Z,9.31
2022-11-16T07:50:20.209Z,9.80
2022-11-16T07:52:46.890Z,10.22
2022-11-16T07:55:13.619Z,10.39
2022-11-16T07:57:40.457Z,10.51
2022-11-16T08:00:08.362Z,10.68
2022-11-16T08:02:34.993Z,10.76
2022-11-16T08:05:01.606Z,10.86
2022-11-16T08:07:28.210Z,10.49
2022-11-16T08:09:55.451Z,10.37
2022-11-16T08:12:22.077Z,10.45
2022-11-16T08:14:48.669Z,10.81
2022-11-16T08:17:15.752Z,10.80
2022-11-16T08:19:42.512Z,10.38
2022-11-16T08:22:09.494Z,10.27
2022-11-16T08:24:36.057Z,10.59
2022-11-16T08:27:03.117Z,9.75
2022-11-16T08:29:29.731Z,9.39
2022-11-16T08:31:56.297Z,11.51
2022-11-16T08:34:22.951Z,11.63
2022-11-16T08:36:49.613Z,11.97
2022-11-16T08:39:17.396Z,11.70
2022-11-16T08:41:44.413Z,11.81
2022-11-16T08:44:11.485Z,11.55
2022-11-16T08:46:38.099Z,12.28
2022-11-16T08:49:04.749Z,12.06
2022-11-16T08:54:15.235Z,12.82
2022-11-16T08:56:41.778Z,12.18
2022-11-16T08:59:08.327Z,12.85
2022-11-16T09:01:35.027Z,12.21
2022-11-16T09:04:01.793Z,13.09
2022-11-16T09:06:28.757Z,13.32
2022-11-16T09:08:56.281Z,13.03
2022-11-16T09:11:24.694Z,13.22
2022-11-16T09:16:37.127Z,13.73
2022-11-16T09:19:03.662Z,13.39
2022-11-16T09:21:30.686Z,13.86
2022-11-16T09:23:58.083Z,13.94
2022-11-16T09:26:25.424Z,13.68
2022-11-16T09:29:00.548Z,13.55
2022-11-16T09:31:28.671Z,13.83
2022-11-16T09:33:58.692Z,14.11
2022-11-16T09:36:27.528Z,14.41
2022-11-16T09:39:25.749Z,14.48
2022-11-16T09:42:18.750Z,14.66
2022-11-16T09:44:48.256Z,14.20
2022-11-16T09:47:21.867Z,14.18
2022-11-16T09:50:01.680Z,14.37
2022-11-16T09:52:37.088Z,14.91
2022-11-16T09:55:19.113Z,14.81
2022-11-16T09:57:47.401Z,15.05
2022-11-16T10:00:19.632Z,15.33
2022-11-16T10:03:00.392Z,15.54
2022-11-16T10:05:30.084Z,15.57
2022-11-16T10:08:09.882Z,15.52
2022-11-16T10:10:36.349Z,15.59
2022-11-16T10:13:14.989Z,15.64
2022-11-16T10:16:10.662Z,15.72
2022-11-16T10:19:25.227Z,15.85
2022-11-16T10:22:49.090Z,16.02
2022-11-16T10:25:38.109Z,16.20
2022-11-16T10:28:04.618Z,16.32
2022-11-16T10:30:40.384Z,16.05
2022-11-16T10:33:12.770Z,16.41
2022-11-16T10:35:49.207Z,16.64
2022-11-16T10:38:25.015Z,16.59
2022-11-16T10:41:18.453Z,16.43
2022-11-16T10:43:47.041Z,16.12
2022-11-16T10:46:31.445Z,15.94
2022-11-16T10:49:13.169Z,16.50
2022-11-16T10:51:39.814Z,16.69
2022-11-16T10:54:17.137Z,17.03
2022-11-16T10:56:47.185Z,17.19
2022-11-16T10:59:34.817Z,17.44
2022-11-16T11:02:21.192Z,17.36
2022-11-16T11:05:08.228Z,17.67
2022-11-16T11:07:40.045Z,17.83
2022-11-16T11:10:30.473Z,17.64
2022-11-16T11:13:26.275Z,17.66
2022-11-16T11:16:13.782Z,17.60
2022-11-16T11:18:40.383Z,17.42
2022-11-16T11:21:13.993Z,17.85
2022-11-16T11:23:51.612Z,17.11
2022-11-16T11:26:35.964Z,17.39
2022-11-16T11:29:22.625Z,17.64
2022-11-16T11:31:52.956Z,17.38
2022-11-16T11:34:23.657Z,17.28
2022-11-16T11:36:57.692Z,17.37
2022-11-16T11:42:14.075Z,17.42
2022-11-16T11:44:49.815Z,17.60
2022-11-16T11:50:45.802Z,17.08
2022-11-16T11:53:24.636Z,17.31
2022-11-16T11:55:57.826Z,17.26
2022-11-16T11:58:34.026Z,16.04
2022-11-16T12:01:24.872Z,16.97
2022-11-16T12:04:13.871Z,17.15
2022-11-16T12:07:16.128Z,17.24
2022-11-16T12:10:01.001Z,17.24
2022-11-16T12:12:51.963Z,17.40
2022-11-16T12:15:35.443Z,16.51
2022-11-16T12:18:43.645Z,17.55
2022-11-16T12:21:19.606Z,17.33
2022-11-16T12:23:56.114Z,17.52
2022-11-16T12:26:44.909Z,17.60
2022-11-16T12:29:23.769Z,17.15
2022-11-16T12:32:13.545Z,17.04
2022-11-16T12:35:00.330Z,17.16
2022-11-16T12:37:45.249Z,17.29
2022-11-16T12:40:33.720Z,17.20
2022-11-16T12:43:21.368Z,17.19
2022-11-16T12:46:29.319Z,16.69
2022-11-16T12:49:24.353Z,16.99
2022-11-16T12:51:55.797Z,17.07
2022-11-16T12:55:19.093Z,17.17
2022-11-16T12:57:57.792Z,17.30
2022-11-16T13:00:24.410Z,16.85
2022-11-16T13:03:18.981Z,17.63
2022-11-16T13:05:59.362Z,17.39
2022-11-16T13:08:45.975Z,15.89
2022-11-16T13:11:20.890Z,15.50
2022-11-16T13:13:53.929Z,17.55
2022-11-16T13:16:22.869Z,17.83
2022-11-16T13:18:50.563Z,16.56
2022-11-16T13:21:34.072Z,17.08
2022-11-16T13:24:05.420Z,16.28
2022-11-16T13:27:09.468Z,16.90
2022-11-16T13:29:59.520Z,16.95
2022-11-16T13:32:44.537Z,16.89
2022-11-16T13:35:16.662Z,16.80
2022-11-16T13:37:50.913Z,16.45
2022-11-16T13:40:30.544Z,16.76
2022-11-16T13:43:09.247Z,16.67
2022-11-16T13:45:44.566Z,16.53
2022-11-16T13:48:25.586Z,16.41
2022-11-16T13:50:55.194Z,16.09
2022-11-16T13:56:57.397Z,15.48
2022-11-16T13:59:28.275Z,15.77
2022-11-16T14:02:04.162Z,15.73
2022-11-16T14:05:01.166Z,15.81
2022-11-16T14:07:47.368Z,15.76
2022-11-16T14:10:32.838Z,15.55
2022-11-16T14:13:00.412Z,15.36
2022-11-16T14:15:38.676Z,15.29
2022-11-16T14:18:08.698Z,15.32
2022-11-16T14:20:51.175Z,14.74
2022-11-16T14:23:47.001Z,15.06
2022-11-16T14:26:19.101Z,14.37
2022-11-16T14:29:07.548Z,14.94
2022-11-16T14:31:57.511Z,14.89
2022-11-16T14:34:48.128Z,13.30
2022-11-16T14:37:29.763Z,14.78
2022-11-16T14:40:14.801Z,14.66
2022-11-16T14:43:23.050Z,14.51
2022-11-16T14:45:56.802Z,14.51
2022-11-16T14:48:27.947Z,12.92
2022-11-16T14:51:22.929Z,14.24
2022-11-16T14:53:54.972Z,14.19
2022-11-16T14:56:22.029Z,14.12
2022-11-16T14:58:53.900Z,13.85
2022-11-16T15:01:31.291Z,13.14
2022-11-16T15:04:04.414Z,13.80
2022-11-16T15:06:40.688Z,13.73
2022-11-16T15:09:07.563Z,13.56
2022-11-16T15:11:58.201Z,13.54
2022-11-16T15:14:30.035Z,13.52
2022-11-16T15:16:59.050Z,13.40
2022-11-16T15:19:30.405Z,13.40
2022-11-16T15:21:59.612Z,13.27
2022-11-16T15:24:32.467Z,13.05
2022-11-16T15:27:34.076Z,13.07
2022-11-16T15:30:18.447Z,12.94
2022-11-16T15:32:47.172Z,12.83
2022-11-16T15:35:25.717Z,12.75
2022-11-16T15:38:14.599Z,12.67
2022-11-16T15:40:50.700Z,12.60
2022-11-16T15:43:19.162Z,12.14
2022-11-16T15:45:46.647Z,12.34
2022-11-16T15:48:20.052Z,12.29
2022-11-16T15:51:23.414Z,12.22
2022-11-16T15:53:53.281Z,12.07
2022-11-16T15:56:25.991Z,11.95
2022-11-16T15:58:58.959Z,11.60
2022-11-16T16:01:25.979Z,11.33
2022-11-16T16:04:05.972Z,11.77
2022-11-16T16:06:54.468Z,11.64
2022-11-16T16:09:39.266Z,11.46
2022-11-16T16:12:16.827Z,11.44
2022-11-16T16:14:44.268Z,11.47
2022-11-16T16:17:21.158Z,11.43
2022-11-16T16:19:55.747Z,11.36
2022-11-16T16:22:29.649Z,11.40
2022-11-16T16:24:56.600Z,11.42
2022-11-16T16:27:29.066Z,11.18
2022-11-16T16:29:58.005Z,11.44
2022-11-16T16:32:32.821Z,11.31
2022-11-16T16:35:02.094Z,11.21
2022-11-16T16:37:31.021Z,11.37
2022-11-16T16:39:58.439Z,10.98
2022-11-16T16:42:25.456Z,11.26
2022-11-16T16:44:54.365Z,11.19
2022-11-16T16:47:21.509Z,11.04
2022-11-16T16:49:50.906Z,10.72
2022-11-16T16:52:18.296Z,11.02
2022-11-16T16:54:44.928Z,10.36
2022-11-16T16:57:16.292Z,10.76
2022-11-16T16:59:45.320Z,10.57
2022-11-16T17:02:17.517Z,10.68
2022-11-16T17:04:49.081Z,10.54
2022-11-16T17:07:18.559Z,10.42
2022-11-16T17:09:45.678Z,10.55
2022-11-16T17:12:12.567Z,10.49
2022-11-16T17:14:39.199Z,10.48
2022-11-16T17:17:05.874Z,10.15
2022-11-16T17:19:32.929Z,10.43
2022-11-16T17:22:00.197Z,10.37
2022-11-16T17:24:26.893Z,10.28
2022-11-16T17:26:53.658Z,10.36
2022-11-16T17:29:20.291Z,10.20
2022-11-16T17:31:47.700Z,10.18
2022-11-16T17:34:14.660Z,10.10
2022-11-16T17:36:42.464Z,9.88
2022-11-16T17:39:09.456Z,9.69
2022-11-16T17:41:36.632Z,9.87
2022-11-16T17:44:04.528Z,9.79
2022-11-16T17:46:31.217Z,9.69
2022-11-16T17:48:57.975Z,9.74
2022-11-16T17:51:25.353Z,9.68
2022-11-16T17:53:53.783Z,9.66
2022-11-16T17:56:28.249Z,9.67
2022-11-16T17:58:58.620Z,9.59
2022-11-16T18:01:28.289Z,9.59
2022-11-16T18:03:56.060Z,9.35
2022-11-16T18:06:25.118Z,9.58
2022-11-16T18:08:52.985Z,9.38
2022-11-16T18:11:22.501Z,9.52
2022-11-16T18:13:53.576Z,9.14
2022-11-16T18:16:22.638Z,9.51
2022-11-16T18:18:50.000Z,9.42
2022-11-16T18:21:20.754Z,9.37
2022-11-16T18:23:47.982Z,9.39
2022-11-16T18:26:17.572Z,9.32
2022-11-16T18:28:51.761Z,9.29
2022-11-16T18:31:20.543Z,8.65
2022-11-16T18:33:49.241Z,9.29
2022-11-16T18:36:16.584Z,9.34
2022-11-16T18:38:43.211Z,8.89
2022-11-16T18:41:19.645Z,9.36
2022-11-16T18:43:56.082Z,9.38
2022-11-16T18:46:28.057Z,9.32
2022-11-16T18:48:55.958Z,8.80
2022-11-16T18:51:24.421Z,9.23
2022-11-16T18:53:51.064Z,9.13
2022-11-16T18:56:18.060Z,8.59
2022-11-16T18:58:53.366Z,9.05
2022-11-16T19:01:23.230Z,8.92
2022-11-16T19:03:51.176Z,8.80
2022-11-16T19:06:18.268Z,8.76
2022-11-16T19:08:50.427Z,8.80
2022-11-16T19:11:20.760Z,8.27
2022-11-16T19:13:56.264Z,8.71
2022-11-16T19:16:24.049Z,8.52
2022-11-16T19:18:50.630Z,8.67
2022-11-16T19:21:18.728Z,8.60
2022-11-16T19:23:48.045Z,8.62
2022-11-16T19:26:16.124Z,8.66
2022-11-16T19:28:44.877Z,8.55
2022-11-16T19:31:25.390Z,8.66
2022-11-16T19:34:07.060Z,8.59
2022-11-16T19:36:36.199Z,8.60
2022-11-16T19:39:04.222Z,8.42
2022-11-16T19:41:30.795Z,8.62
2022-11-16T19:43:59.959Z,8.61
2022-11-16T19:46:28.742Z,8.24
2022-11-16T19:48:56.189Z,8.72
2022-11-16T19:51:31.043Z,8.68
2022-11-16T19:53:59.323Z,8.31
2022-11-16T19:56:26.591Z,8.58
2022-11-16T19:58:53.359Z,8.07
2022-11-16T20:01:23.062Z,8.61
2022-11-16T20:03:50.046Z,8.71
2022-11-16T20:06:31.409Z,8.59
2022-11-16T20:09:03.943Z,8.69
2022-11-16T20:11:33.706Z,8.27
2022-11-16T20:14:00.799Z,8.24
2022-11-16T20:16:34.035Z,8.54
2022-11-16T20:19:05.482Z,8.29
2022-11-16T20:21:34.729Z,8.58
2022-11-16T20:24:06.815Z,8.57
2022-11-16T20:26:35.853Z,8.42
2022-11-16T20:29:03.041Z,8.55
2022-11-16T20:31:32.029Z,8.32
2022-11-16T20:34:04.478Z,8.55
2022-11-16T20:36:32.985Z,8.51
2022-11-16T20:39:00.305Z,8.18
2022-11-16T20:41:28.878Z,8.43
2022-11-16T20:43:57.453Z,8.63
2022-11-16T20:46:28.749Z,8.72
2022-11-16T20:48:57.349Z,8.79
2022-11-16T20:51:24.070Z,8.78
2022-11-16T20:53:50.759Z,8.82
2022-11-16T20:56:19.301Z,8.83
2022-11-16T20:58:46.875Z,8.67
2022-11-16T21:01:16.167Z,9.02
2022-11-16T21:03:44.625Z,9.04
2022-11-16T21:06:12.859Z,9.05
2022-11-16T21:08:40.504Z,9.08
2022-11-16T21:11:16.007Z,8.78
2022-11-16T21:14:01.530Z,6.81
2022-11-16T21:16:28.195Z,9.20
2022-11-16T21:18:55.642Z,9.10
2022-11-16T21:21:22.413Z,9.03
2022-11-16T21:23:51.935Z,8.60
2022-11-16T21:26:26.370Z,8.87
2022-11-16T21:28:53.377Z,9.07
2022-11-16T21:31:22.423Z,9.09
2022-11-16T21:33:49.006Z,9.12
2022-11-16T21:36:17.695Z,9.09
2022-11-16T21:38:45.220Z,9.11
2022-11-16T21:41:13.249Z,9.13
2022-11-16T21:43:42.722Z,9.18
2022-11-16T21:46:18.433Z,9.14
2022-11-16T21:48:46.959Z,9.09
2022-11-16T21:51:19.326Z,8.50
2022-11-16T21:53:46.078Z,8.17
2022-11-16T21:56:15.028Z,7.62
2022-11-16T21:58:42.104Z,7.50
2022-11-16T22:01:09.887Z,7.76
2022-11-16T22:03:37.062Z,7.43
2022-11-16T22:06:24.001Z,7.32
2022-11-16T22:08:50.632Z,7.54
2022-11-16T22:11:17.912Z,7.62
2022-11-16T22:13:44.449Z,7.69
2022-11-16T22:16:15.142Z,7.55
2022-11-16T22:18:42.307Z,7.93
2022-11-16T22:21:09.265Z,8.05
2022-11-16T22:23:36.455Z,8.12
2022-11-16T22:26:11.596Z,8.25
2022-11-16T22:28:39.355Z,7.94
2022-11-16T22:31:14.097Z,8.19
2022-11-16T22:33:41.384Z,8.33
2022-11-16T22:36:10.202Z,8.41
2022-11-16T22:38:37.413Z,8.52
2022-11-16T22:41:04.333Z,8.63
2022-11-16T22:43:32.552Z,8.67
2022-11-16T22:46:05.542Z,8.71
2022-11-16T22:48:34.112Z,8.69
2022-11-16T22:51:09.793Z,8.65
2022-11-16T22:53:36.648Z,8.61
2022-11-16T22:56:05.365Z,8.59
2022-11-16T22:58:31.955Z,8.69
2022-11-16T23:00:58.558Z,8.71
2022-11-16T23:03:25.180Z,8.53
2022-11-16T23:05:51.838Z,8.65
2022-11-16T23:08:18.421Z,8.63
2022-11-16T23:11:03.750Z,8.63
2022-11-16T23:13:48.785Z,8.75
2022-11-16T23:16:15.319Z,8.42
2022-11-16T23:18:41.860Z,8.53
2022-11-16T23:21:27.345Z,8.68
2022-11-16T23:24:12.363Z,8.12
2022-11-16T23:26:57.648Z,8.65
2022-11-16T23:29:24.263Z,8.65
2022-11-16T23:31:50.796Z,8.71
2022-11-16T23:34:17.383Z,8.84
2022-11-16T23:36:43.929Z,8.88
2022-11-16T23:39:10.627Z,8.77
2022-11-16T23:41:55.833Z,9.00
2022-11-16T23:44:22.396Z,9.05
2022-11-16T23:46:48.940Z,8.37
2022-11-16T23:49:15.502Z,9.02
2022-11-16T23:51:42.032Z,8.65
2022-11-16T23:54:08.631Z,8.99
2022-11-16T23:56:35.238Z,9.11
2022-11-16T23:59:01.790Z,9.08
